Time;durP1;ratioP1;P1;durP2;ratioP2;P2;SDS_P1;SDS_P2;PMS_P1;PMS_P2;Temp;Humidity;BMP_temperature;BMP_pressure;BME280_temperature;BME280_humidity;BME280_pressure;Samples;Min_cycle;Max_cycle;Signal;HPM_P1;HPM_P2
2023/01/13 00:00:29;;;;;;;16.88;1.27;;;9.40;99.90;;;;;;5017924;28;20114;-80
2023/01/13 00:02:55;;;;;;;19.63;2.08;;;9.80;99.90;;;;;;5019656;28;20129;-80
2023/01/13 00:05:20;;;;;;;18.95;1.85;;;8.70;99.90;;;;;;5017283;28;20484;-80
2023/01/13 00:07:48;;;;;;;21.23;1.25;;;8.60;99.90;;;;;;5017688;28;20034;-80
2023/01/13 00:10:13;;;;;;;19.30;0.95;;;8.60;99.90;;;;;;5017532;28;20506;-80
2023/01/13 00:12:42;;;;;;;15.25;2.20;;;8.60;99.90;;;;;;5018358;28;20022;-79
2023/01/13 00:15:09;;;;;;;24.35;2.33;;;8.60;99.90;;;;;;5018667;28;20018;-80
2023/01/13 00:17:35;;;;;;;19.20;1.73;;;8.60;99.90;;;;;;5019109;28;20117;-78
2023/01/13 00:20:01;;;;;;;24.48;2.28;;;8.50;99.90;;;;;;5019123;28;20022;-79
2023/01/13 00:22:26;;;;;;;18.05;1.88;;;8.40;99.90;;;;;;5018223;28;20026;-80
2023/01/13 00:24:52;;;;;;;23.23;2.38;;;8.40;99.90;;;;;;5017751;28;20069;-79
2023/01/13 00:27:17;;;;;;;12.00;1.08;;;8.40;99.90;;;;;;5017549;28;20028;-80
2023/01/13 00:29:43;;;;;;;19.48;1.73;;;8.40;99.90;;;;;;5019519;28;20037;-80
2023/01/13 00:32:08;;;;;;;24.80;2.13;;;8.40;99.90;;;;;;5019083;28;20389;-80
2023/01/13 00:34:34;;;;;;;34.00;3.03;;;8.40;99.90;;;;;;5019290;28;20056;-80
2023/01/13 00:37:00;;;;;;;20.02;1.85;;;8.40;99.90;;;;;;5019644;28;20022;-80
2023/01/13 00:39:25;;;;;;;16.50;1.20;;;9.20;99.90;;;;;;5017962;28;20029;-77
2023/01/13 00:44:35;;;;;;;31.45;2.42;;;8.40;99.90;;;;;;5016167;28;20041;-77
2023/01/13 00:47:01;;;;;;;16.27;1.85;;;8.50;99.90;;;;;;5015538;28;20026;-79
2023/01/13 00:49:26;;;;;;;20.58;2.35;;;8.60;99.90;;;;;;5016006;28;20093;-77
2023/01/13 00:51:52;;;;;;;10.43;0.88;;;8.50;99.90;;;;;;5015441;28;20374;-77
2023/01/13 00:54:17;;;;;;;23.15;1.75;;;8.40;99.90;;;;;;5016780;28;20014;-79
2023/01/13 00:56:43;;;;;;;21.92;2.47;;;8.50;99.90;;;;;;5017549;28;20507;-81
2023/01/13 00:59:13;;;;;;;24.38;2.33;;;8.50;99.90;;;;;;5016455;28;20029;-78
2023/01/13 01:01:39;;;;;;;18.92;1.98;;;8.50;99.90;;;;;;5020925;28;20182;-79
2023/01/13 01:04:05;;;;;;;33.60;3.03;;;8.50;99.90;;;;;;5022880;28;20038;-78
2023/01/13 01:06:31;;;;;;;20.50;1.33;;;8.50;99.90;;;;;;5023306;28;20100;-79
2023/01/13 01:08:57;;;;;;;14.02;1.40;;;8.50;99.90;;;;;;5022786;28;20026;-79
2023/01/13 01:11:28;;;;;;;27.75;2.75;;;8.80;99.90;;;;;;5019610;28;20034;-78
2023/01/13 01:14:00;;;;;;;22.20;2.97;;;8.50;99.90;;;;;;5015372;28;20026;-78
2023/01/13 01:16:28;;;;;;;26.00;2.65;;;8.50;99.90;;;;;;5017039;28;20018;-78
2023/01/13 01:18:54;;;;;;;13.80;1.50;;;8.60;99.90;;;;;;5016382;28;20033;-79
2023/01/13 01:21:22;;;;;;;29.02;3.10;;;8.60;99.90;;;;;;5017277;28;20077;-79
2023/01/13 01:23:48;;;;;;;18.15;1.73;;;;;;;;;;5015157;28;20026;-78
2023/01/13 01:26:17;;;;;;;14.45;1.00;;;8.50;99.90;;;;;;5016969;28;20033;-78
2023/01/13 01:28:44;;;;;;;22.95;2.00;;;8.50;99.90;;;;;;5015262;28;20022;-78
2023/01/13 01:31:22;;;;;;;17.15;2.22;;;8.40;99.90;;;;;;5017083;28;20022;-78
2023/01/13 01:33:50;;;;;;;20.98;1.58;;;8.50;99.90;;;;;;5016158;28;20543;-78
2023/01/13 01:36:20;;;;;;;18.83;1.05;;;8.50;99.90;;;;;;5016517;28;20018;-78
2023/01/13 01:38:47;;;;;;;24.20;2.53;;;8.40;99.90;;;;;;5016388;28;20490;-78
2023/01/13 01:41:18;;;;;;;22.58;3.13;;;8.40;99.90;;;;;;5016299;28;20037;-78
2023/01/13 01:44:05;;;;;;;22.23;0.98;;;8.40;99.90;;;;;;5014967;28;20022;-78
2023/01/13 01:46:31;;;;;;;17.05;1.50;;;;;;;;;;5015401;28;20565;-78
2023/01/13 01:49:18;;;;;;;26.58;2.22;;;8.40;99.90;;;;;;5016719;28;20068;-78
2023/01/13 01:51:55;;;;;;;22.20;2.42;;;8.40;99.90;;;;;;5017201;28;20153;-78
2023/01/13 01:54:42;;;;;;;22.75;2.33;;;8.40;99.90;;;;;;5016129;28;20026;-78
2023/01/13 01:57:14;;;;;;;28.60;2.38;;;8.40;99.90;;;;;;5015436;28;20026;-78
2023/01/13 01:59:40;;;;;;;18.67;1.52;;;8.40;99.90;;;;;;5014544;28;20018;-78
2023/01/13 02:02:07;;;;;;;22.98;1.73;;;8.40;99.90;;;;;;5015363;28;20022;-78
2023/01/13 02:04:35;;;;;;;21.27;1.15;;;;;;;;;;5016018;28;20022;-78
2023/01/13 02:07:08;;;;;;;22.35;1.40;;;8.30;99.90;;;;;;5015802;28;20034;-78
2023/01/13 02:09:35;;;;;;;16.95;2.45;;;8.40;99.90;;;;;;5016381;28;20061;-78
2023/01/13 02:14:48;;;;;;;22.83;1.10;;;8.30;99.90;;;;;;5017458;28;20069;-77
2023/01/13 02:17:20;;;;;;;18.80;1.38;;;8.30;99.90;;;;;;5017176;28;20377;-78
2023/01/13 02:20:23;;;;;;;24.30;2.25;;;8.30;99.90;;;;;;5017184;28;20030;-78
2023/01/13 02:24:52;;;;;;;25.20;1.88;;;8.40;99.90;;;;;;5016464;28;20037;-78
2023/01/13 02:26:09;;;;;;;25.75;1.88;;;8.80;99.90;;;;;;5015358;28;20029;-78
2023/01/13 02:31:44;;;;;;;17.63;1.13;;;8.20;99.90;;;;;;5016543;28;20032;-78
2023/01/13 02:34:18;;;;;;;23.48;1.80;;;8.30;99.90;;;;;;5016215;28;20029;-78
2023/01/13 02:36:59;;;;;;;26.88;1.85;;;8.30;99.90;;;;;;5014229;28;20028;-78
2023/01/13 02:39:49;;;;;;;18.75;1.65;;;8.30;99.90;;;;;;5016260;28;20421;-78
2023/01/13 02:45:23;;;;;;;20.35;1.52;;;8.30;99.90;;;;;;5016885;28;20088;-78
2023/01/13 02:47:54;;;;;;;46.50;2.40;;;8.30;99.90;;;;;;5019668;28;20380;-77
2023/01/13 02:50:24;;;;;;;5.75;1.17;;;8.40;99.90;;;;;;5019340;28;20026;-78
2023/01/13 02:52:55;;;;;;;27.33;2.00;;;8.40;99.90;;;;;;5018153;28;20033;-78
2023/01/13 02:55:37;;;;;;;19.92;2.00;;;8.40;99.90;;;;;;5018721;28;20085;-78
2023/01/13 02:58:06;;;;;;;20.80;1.85;;;8.40;99.90;;;;;;5018400;28;20029;-78
2023/01/13 03:00:34;;;;;;;20.17;2.28;;;8.40;99.90;;;;;;5017669;28;20033;-78
2023/01/13 03:03:05;;;;;;;24.80;1.60;;;8.40;99.90;;;;;;5018528;28;20026;-78
2023/01/13 03:05:32;;;;;;;17.20;2.38;;;8.40;99.90;;;;;;5019119;28;20080;-78
2023/01/13 03:08:17;;;;;;;17.83;1.42;;;8.40;99.90;;;;;;5018265;28;20030;-78
2023/01/13 03:10:57;;;;;;;20.80;2.45;;;8.30;99.90;;;;;;5021843;28;20042;-77
2023/01/13 03:13:38;;;;;;;22.05;2.30;;;8.30;99.90;;;;;;5019836;28;20489;-78
2023/01/13 03:16:08;;;;;;;16.38;1.20;;;8.30;99.90;;;;;;5018245;28;20076;-78
2023/01/13 03:18:51;;;;;;;16.05;1.67;;;8.30;99.90;;;;;;5018967;28;20481;-78
2023/01/13 03:21:24;;;;;;;15.48;1.48;;;9.20;99.90;;;;;;5018602;28;20117;-78
2023/01/13 03:23:51;;;;;;;19.27;1.73;;;8.30;99.90;;;;;;5020255;28;20097;-78
2023/01/13 03:26:33;;;;;;;15.65;0.90;;;8.30;99.90;;;;;;5019465;28;20117;-78
2023/01/13 03:29:19;;;;;;;24.80;2.40;;;8.30;99.90;;;;;;5019308;28;20096;-78
2023/01/13 03:32:12;;;;;;;18.45;1.45;;;8.30;99.90;;;;;;5017950;28;20088;-78
2023/01/13 03:35:23;;;;;;;24.40;2.53;;;8.20;99.90;;;;;;5019125;28;20061;-77
2023/01/13 03:38:03;;;;;;;16.13;0.93;;;8.20;99.90;;;;;;4989366;28;20037;-78
2023/01/13 03:40:38;;;;;;;19.60;1.23;;;8.30;99.90;;;;;;5018437;28;20024;-78
2023/01/13 03:45:58;;;;;;;25.52;1.40;;;8.40;99.90;;;;;;5019166;28;20118;-77
2023/01/13 03:48:30;;;;;;;14.48;1.35;;;8.50;99.90;;;;;;5017264;28;20101;-78
2023/01/13 03:51:05;;;;;;;21.95;1.00;;;8.40;99.90;;;;;;5016632;28;20033;-79
2023/01/13 03:53:47;;;;;;;14.07;1.02;;;8.40;99.90;;;;;;5018362;28;20109;-78
2023/01/13 03:56:25;;;;;;;21.92;1.52;;;8.50;99.90;;;;;;5016504;28;20072;-78
2023/01/13 03:58:51;;;;;;;;;;;8.50;99.90;;;;;;5019026;28;20026;-77
2023/01/13 04:01:22;;;;;;;20.10;1.02;;;8.50;99.90;;;;;;5018397;28;19906;-78
2023/01/13 04:04:18;;;;;;;17.10;1.02;;;8.40;99.90;;;;;;5016948;28;20440;-78
2023/01/13 04:06:50;;;;;;;10.85;1.05;;;8.40;99.90;;;;;;5017764;28;20080;-78
2023/01/13 04:09:51;;;;;;;24.38;1.23;;;8.30;99.90;;;;;;5017987;28;20026;-78
2023/01/13 04:15:17;;;;;;;11.90;0.98;;;8.30;99.90;;;;;;5023339;28;20037;-78
2023/01/13 04:17:43;;;;;;;14.63;2.55;;;8.20;99.90;;;;;;5019042;28;20026;-78
2023/01/13 04:20:09;;;;;;;8.27;0.20;;;8.30;99.90;;;;;;5017208;28;20026;-78
2023/01/13 04:22:35;;;;;;;14.63;0.65;;;8.30;99.90;;;;;;5017659;28;20030;-77
2023/01/13 04:25:01;;;;;;;7.35;0.10;;;8.20;99.90;;;;;;5016344;28;20096;-78
2023/01/13 04:27:26;;;;;;;5.32;0.32;;;8.70;99.90;;;;;;5017830;28;20026;-78
2023/01/13 04:29:52;;;;;;;10.38;0.73;;;8.20;99.90;;;;;;5018840;28;20108;-77
2023/01/13 04:32:17;;;;;;;15.02;0.30;;;8.10;99.90;;;;;;5018961;28;20034;-78
2023/01/13 04:34:43;;;;;;;5.15;0.10;;;8.10;99.90;;;;;;5017148;28;20072;-78
2023/01/13 04:37:09;;;;;;;10.10;0.22;;;9.30;99.90;;;;;;5018864;28;20030;-78
2023/01/13 04:39:34;;;;;;;7.88;0.25;;;8.00;99.90;;;;;;5019256;28;20030;-77
2023/01/13 04:42:01;;;;;;;6.03;0.03;;;8.00;99.90;;;;;;5019459;28;20022;-77
2023/01/13 04:44:27;;;;;;;2.05;0.20;;;7.90;99.90;;;;;;5018623;28;20022;-77
2023/01/13 04:46:53;;;;;;;10.73;0.28;;;8.00;99.90;;;;;;5017924;28;20030;-77
2023/01/13 04:49:28;;;;;;;10.27;0.68;;;7.90;99.90;;;;;;5019045;28;20022;-77
2023/01/13 04:51:53;;;;;;;9.82;0.95;;;8.60;99.90;;;;;;5017606;28;20116;-77
2023/01/13 04:54:19;;;;;;;8.25;0.10;;;7.90;99.90;;;;;;5017416;28;20057;-77
2023/01/13 04:56:45;;;;;;;11.48;0.20;;;7.90;99.90;;;;;;5016640;28;20032;-78
2023/01/13 04:59:11;;;;;;;8.63;0.77;;;8.00;99.90;;;;;;5016558;28;20108;-78
2023/01/13 05:01:37;;;;;;;6.07;0.95;;;8.00;99.90;;;;;;5016870;28;20556;-78
2023/01/13 05:04:03;;;;;;;9.07;0.90;;;8.00;99.90;;;;;;5016968;28;20046;-78
2023/01/13 05:06:29;;;;;;;6.45;0.20;;;8.00;99.90;;;;;;5017488;28;20022;-77
2023/01/13 05:08:55;;;;;;;9.38;0.45;;;8.00;99.90;;;;;;5017273;28;20026;-77
2023/01/13 05:17:01;;;;;;;15.75;1.40;;;8.00;99.90;;;;;;5017572;28;20036;-77
2023/01/13 05:19:35;;;;;;;6.13;0.10;;;8.00;99.90;;;;;;5018655;28;20026;-78
2023/01/13 05:27:31;;;;;;;10.75;0.63;;;8.00;99.90;;;;;;5017429;28;20132;-78
2023/01/13 05:29:56;;;;;;;11.52;1.63;;;8.10;99.90;;;;;;5016844;28;20033;-78
2023/01/13 05:32:23;;;;;;;8.60;0.60;;;8.10;99.90;;;;;;5015690;28;20029;-78
2023/01/13 05:34:49;;;;;;;13.55;0.75;;;8.00;99.90;;;;;;5018850;28;20496;-78
2023/01/13 05:37:15;;;;;;;10.60;0.17;;;8.10;99.90;;;;;;5018553;28;20018;-78
2023/01/13 05:45:23;;;;;;;7.10;1.23;;;7.90;99.90;;;;;;5018414;28;20165;-78
2023/01/13 05:47:49;;;;;;;8.10;0.32;;;8.00;99.90;;;;;;5017112;28;20065;-78
2023/01/13 05:50:15;;;;;;;5.78;1.13;;;8.00;99.90;;;;;;5015847;28;20022;-78
2023/01/13 05:52:42;;;;;;;18.17;1.17;;;7.90;99.90;;;;;;5016837;28;20030;-78
2023/01/13 05:55:08;;;;;;;15.18;0.30;;;7.90;99.90;;;;;;5016412;28;20024;-78
2023/01/13 05:57:34;;;;;;;13.00;1.27;;;7.90;99.90;;;;;;5014714;28;20018;-78
2023/01/13 05:59:59;;;;;;;9.30;0.68;;;7.90;99.90;;;;;;5017227;28;20500;-77
2023/01/13 06:02:25;;;;;;;18.80;0.30;;;7.90;99.90;;;;;;5016717;28;20121;-78
2023/01/13 06:04:51;;;;;;;10.55;0.40;;;7.90;99.90;;;;;;5015643;28;20026;-78
2023/01/13 06:07:17;;;;;;;14.18;1.48;;;7.80;99.90;;;;;;5015055;28;20033;-77
2023/01/13 06:09:42;;;;;;;13.63;1.27;;;7.80;99.90;;;;;;5017382;28;20093;-77
2023/01/13 06:12:11;;;;;;;7.45;0.52;;;7.80;99.90;;;;;;5016479;28;20030;-78
2023/01/13 06:14:39;;;;;;;13.05;0.65;;;7.80;99.90;;;;;;5016871;28;20022;-78
2023/01/13 06:17:09;;;;;;;9.70;0.47;;;7.80;99.90;;;;;;5014619;28;20112;-78
2023/01/13 06:19:35;;;;;;;7.53;0.28;;;;;;;;;;5013705;28;20026;-78
2023/01/13 06:22:23;;;;;;;11.77;0.35;;;7.80;99.90;;;;;;5013992;28;20029;-78
2023/01/13 06:24:49;;;;;;;14.50;2.35;;;7.80;99.90;;;;;;5015589;28;20108;-78
2023/01/13 06:27:16;;;;;;;10.98;0.85;;;8.00;99.90;;;;;;5017934;28;20026;-78
2023/01/13 06:29:42;;;;;;;14.60;0.98;;;7.90;99.90;;;;;;5014125;28;20108;-78
2023/01/13 06:32:15;;;;;;;9.85;0.45;;;8.00;99.90;;;;;;5015170;28;20492;-78
2023/01/13 06:34:46;;;;;;;15.10;0.98;;;8.00;99.90;;;;;;5013243;28;20064;-78
2023/01/13 06:37:15;;;;;;;12.65;1.00;;;8.00;99.90;;;;;;5013441;28;20022;-78
2023/01/13 06:39:41;;;;;;;14.40;0.90;;;8.10;99.90;;;;;;5013251;28;20053;-78
2023/01/13 06:44:52;;;;;;;13.30;0.85;;;8.10;99.90;;;;;;5014564;28;20511;-77
2023/01/13 06:47:18;;;;;;;7.63;0.38;;;8.20;99.90;;;;;;5015048;28;20021;-79
2023/01/13 06:49:43;;;;;;;18.50;0.30;;;8.20;99.90;;;;;;5018808;28;20046;-78
2023/01/13 06:52:09;;;;;;;9.27;1.02;;;8.10;99.90;;;;;;5019527;28;20026;-81
2023/01/13 06:54:34;;;;;;;10.48;0.80;;;8.20;99.90;;;;;;5018415;28;20022;-78
2023/01/13 06:57:01;;;;;;;10.05;0.82;;;8.20;99.90;;;;;;5016887;28;20022;-79
2023/01/13 06:59:26;;;;;;;18.40;1.70;;;8.20;99.90;;;;;;5017116;28;20480;-79
2023/01/13 07:01:52;;;;;;;18.17;0.85;;;8.20;99.90;;;;;;5016044;28;20022;-79
2023/01/13 07:04:18;;;;;;;8.18;0.63;;;9.20;99.90;;;;;;5015794;28;20030;-79
2023/01/13 07:06:43;;;;;;;12.88;0.95;;;8.20;99.90;;;;;;5014544;28;20026;-78
2023/01/13 07:09:09;;;;;;;9.30;1.75;;;8.20;99.90;;;;;;5014703;28;20113;-77
2023/01/13 07:11:35;;;;;;;16.30;1.08;;;8.20;99.90;;;;;;5014708;28;20457;-77
2023/01/13 07:16:45;;;;;;;13.50;1.17;;;8.30;99.90;;;;;;5016231;28;20037;-79
2023/01/13 07:19:10;;;;;;;20.45;0.85;;;8.20;99.90;;;;;;5013803;28;20025;-78
2023/01/13 07:21:36;;;;;;;11.35;1.48;;;8.30;99.90;;;;;;5013750;28;20018;-78
2023/01/13 07:24:02;;;;;;;10.60;0.57;;;8.20;99.90;;;;;;5014601;28;20018;-79
2023/01/13 07:26:27;;;;;;;15.93;1.02;;;8.20;99.90;;;;;;5016203;28;20496;-78
2023/01/13 07:28:53;;;;;;;10.05;0.68;;;8.20;99.90;;;;;;5016134;28;20037;-78
2023/01/13 07:31:20;;;;;;;8.40;1.15;;;8.20;99.90;;;;;;5014500;28;20477;-79
2023/01/13 07:33:46;;;;;;;29.52;1.35;;;8.20;99.90;;;;;;5018441;28;20094;-79
2023/01/13 07:36:13;;;;;;;13.23;1.27;;;9.50;99.90;;;;;;5018847;28;20049;-79
2023/01/13 07:38:38;;;;;;;18.85;1.13;;;8.30;99.90;;;;;;5018234;28;20029;-78
2023/01/13 07:43:50;;;;;;;14.38;0.70;;;8.60;99.90;;;;;;5020195;28;20113;-79
2023/01/13 07:46:17;;;;;;;15.75;1.13;;;8.40;99.90;;;;;;5017426;28;20120;-79
2023/01/13 07:48:43;;;;;;;18.65;0.43;;;8.40;99.90;;;;;;5019290;28;20034;-79
2023/01/13 07:51:11;;;;;;;18.08;2.20;;;8.70;99.90;;;;;;5019532;28;20021;-79
2023/01/13 07:53:37;;;;;;;13.17;0.73;;;8.40;99.90;;;;;;5020153;28;20026;-78
2023/01/13 07:56:05;;;;;;;15.82;1.75;;;8.40;99.90;;;;;;5018696;28;20032;-79
2023/01/13 07:58:32;;;;;;;7.72;0.50;;;8.40;99.90;;;;;;5021275;28;20029;-80
2023/01/13 08:00:58;;;;;;;8.43;0.88;;;8.40;99.90;;;;;;5018493;28;20022;-79
2023/01/13 08:03:25;;;;;;;15.85;1.00;;;8.40;99.90;;;;;;5019000;28;20029;-79
2023/01/13 08:05:50;;;;;;;15.10;0.65;;;8.40;99.90;;;;;;5020517;28;20026;-79
2023/01/13 08:08:16;;;;;;;15.13;1.20;;;8.40;99.90;;;;;;5021337;28;20033;-79
2023/01/13 08:10:42;;;;;;;12.30;0.88;;;8.40;99.90;;;;;;5017716;28;20033;-78
2023/01/13 08:13:17;;;;;;;14.35;0.88;;;8.50;99.90;;;;;;5018402;28;20026;-79
2023/01/13 08:15:43;;;;;;;18.13;1.08;;;8.40;99.90;;;;;;5016932;28;20064;-78
2023/01/13 08:18:09;;;;;;;9.40;0.77;;;9.40;99.90;;;;;;5017669;28;20105;-78
2023/01/13 08:20:35;;;;;;;17.55;1.38;;;8.50;99.90;;;;;;5017121;28;20072;-78
2023/01/13 08:23:00;;;;;;;13.32;0.30;;;8.50;99.90;;;;;;5016135;28;20022;-79
2023/01/13 08:25:27;;;;;;;10.90;0.85;;;8.60;99.90;;;;;;5015439;28;20022;-78
2023/01/13 08:27:53;;;;;;;10.10;0.45;;;8.60;99.90;;;;;;5015769;28;20457;-78
2023/01/13 08:30:19;;;;;;;6.13;0.98;;;8.60;99.90;;;;;;5015847;28;20057;-79
2023/01/13 08:32:49;;;;;;;15.20;0.65;;;8.60;99.90;;;;;;5017167;28;20053;-79
2023/01/13 08:35:16;;;;;;;13.93;1.02;;;8.50;99.90;;;;;;5018843;28;20022;-79
2023/01/13 08:37:42;;;;;;;16.02;1.13;;;8.60;99.90;;;;;;5018820;28;20022;-79
2023/01/13 08:40:09;;;;;;;16.67;0.68;;;9.10;99.90;;;;;;5017454;28;20096;-78
2023/01/13 08:42:35;;;;;;;14.13;1.13;;;8.50;99.90;;;;;;5019470;28;20034;-79
2023/01/13 08:45:00;;;;;;;12.27;1.10;;;8.40;99.90;;;;;;5017511;28;20021;-79
2023/01/13 08:47:27;;;;;;;13.18;0.57;;;8.40;99.90;;;;;;5018159;28;20061;-79
2023/01/13 08:49:53;;;;;;;11.80;0.47;;;8.40;99.90;;;;;;5019624;28;20025;-79
2023/01/13 08:52:19;;;;;;;15.65;1.85;;;8.30;99.90;;;;;;5019888;28;20033;-79
2023/01/13 08:54:45;;;;;;;18.98;2.47;;;8.20;99.90;;;;;;5019622;28;20156;-79
2023/01/13 08:57:11;;;;;;;12.00;0.80;;;8.20;99.90;;;;;;5019201;28;20473;-79
2023/01/13 08:59:36;;;;;;;16.67;0.85;;;8.20;99.90;;;;;;5017431;28;20055;-79
2023/01/13 09:02:03;;;;;;;11.43;0.35;;;8.30;99.90;;;;;;5017902;28;20049;-78
2023/01/13 09:04:29;;;;;;;11.82;1.10;;;8.30;99.90;;;;;;5018210;28;20084;-79
2023/01/13 09:06:55;;;;;;;10.30;1.45;;;8.30;99.90;;;;;;5016993;28;20412;-79
2023/01/13 09:14:37;;;;;;;9.63;0.95;;;8.30;99.90;;;;;;5017267;28;20380;-78
2023/01/13 09:17:03;;;;;;;7.97;0.88;;;8.30;99.90;;;;;;4998979;28;20029;-78
2023/01/13 09:19:29;;;;;;;9.43;0.32;;;8.30;99.90;;;;;;5016867;28;20026;-78
2023/01/13 09:21:55;;;;;;;16.45;0.88;;;8.20;99.90;;;;;;4999578;28;20030;-78
2023/01/13 09:24:22;;;;;;;10.25;0.60;;;8.70;99.90;;;;;;4998116;28;20451;-78
2023/01/13 09:26:48;;;;;;;12.70;1.00;;;8.20;99.90;;;;;;4997801;28;20014;-78
2023/01/13 09:29:14;;;;;;;13.13;1.17;;;8.10;99.90;;;;;;5016455;28;20104;-79
2023/01/13 09:31:40;;;;;;;16.10;1.33;;;;;;;;;;5016620;28;20428;-78
2023/01/13 09:36:51;;;;;;;10.93;0.68;;;8.20;99.90;;;;;;5017053;28;20053;-78
2023/01/13 09:39:17;;;;;;;10.43;0.52;;;8.20;99.90;;;;;;5015110;28;20026;-78
2023/01/13 09:45:03;;;;;;;10.95;2.03;;;8.30;99.90;;;;;;5015722;28;20033;-78
2023/01/13 09:48:03;;;;;;;19.58;3.05;;;8.30;99.90;;;;;;5015566;28;20025;-78
2023/01/13 09:50:46;;;;;;;17.50;1.20;;;8.40;99.90;;;;;;5014540;28;20022;-78
2023/01/13 09:53:35;;;;;;;11.48;0.73;;;8.40;99.90;;;;;;5014576;28;20112;-79
2023/01/13 09:56:01;;;;;;;11.52;0.88;;;8.30;99.90;;;;;;5014403;28;20525;-79
2023/01/13 09:58:27;;;;;;;18.17;1.58;;;8.30;99.90;;;;;;5014350;28;20060;-78
2023/01/13 10:01:15;;;;;;;12.70;1.33;;;8.40;99.90;;;;;;5014652;28;20026;-78
2023/01/13 10:03:41;;;;;;;15.27;1.30;;;8.40;99.90;;;;;;4989420;28;20267;-78
2023/01/13 10:06:21;;;;;;;17.15;1.08;;;8.30;99.90;;;;;;4996648;28;20064;-78
2023/01/13 10:08:47;;;;;;;20.38;1.42;;;8.40;99.90;;;;;;4997352;28;20057;-78
2023/01/13 10:14:47;;;;;;;13.33;0.40;;;9.00;99.90;;;;;;5014358;28;20064;-78
2023/01/13 10:17:19;;;;;;;14.40;0.85;;;8.50;99.90;;;;;;5011595;28;20061;-78
2023/01/13 10:20:00;;;;;;;14.38;1.95;;;8.50;99.90;;;;;;4996424;28;20036;-78
2023/01/13 10:23:07;;;;;;;12.65;0.85;;;8.60;99.90;;;;;;4997347;28;20036;-79
2023/01/13 10:25:55;;;;;;;23.60;1.48;;;8.70;99.90;;;;;;4998138;28;20121;-79
2023/01/13 10:28:22;;;;;;;20.48;1.02;;;8.70;99.90;;;;;;4997858;28;20079;-79
2023/01/13 10:30:48;;;;;;;14.23;1.58;;;8.80;99.90;;;;;;4997608;28;20072;-78
2023/01/13 10:33:17;;;;;;;13.27;1.60;;;8.80;99.90;;;;;;4997043;28;20504;-79
2023/01/13 10:35:50;;;;;;;9.20;1.08;;;8.80;99.90;;;;;;4997283;28;20025;-78
2023/01/13 10:38:19;;;;;;;11.13;0.50;;;8.80;99.90;;;;;;5014509;28;20042;-78
2023/01/13 10:40:56;;;;;;;13.93;0.88;;;8.80;99.90;;;;;;5013727;28;20018;-79
2023/01/13 10:43:23;;;;;;;12.50;1.02;;;8.80;99.90;;;;;;4996116;28;20444;-78
2023/01/13 10:46:04;;;;;;;9.52;0.32;;;8.80;99.90;;;;;;5013775;28;20073;-78
2023/01/13 10:48:38;;;;;;;10.40;0.52;;;8.90;99.90;;;;;;5013672;28;20424;-78
2023/01/13 10:51:28;;;;;;;13.50;1.55;;;8.80;99.90;;;;;;5013768;28;20109;-77
2023/01/13 10:54:01;;;;;;;10.55;1.48;;;8.90;99.90;;;;;;5014265;28;20037;-77
2023/01/13 10:56:30;;;;;;;12.50;0.73;;;8.90;99.90;;;;;;4996094;28;20022;-78
2023/01/13 10:59:25;;;;;;;16.77;1.13;;;9.00;99.90;;;;;;5013768;28;20478;-78
2023/01/13 11:02:22;;;;;;;17.75;0.85;;;8.90;99.90;;;;;;4989626;28;20026;-78
2023/01/13 11:04:54;;;;;;;11.60;0.73;;;8.90;99.90;;;;;;4974051;28;20089;-78
2023/01/13 11:07:27;;;;;;;7.72;0.25;;;8.90;99.90;;;;;;5015206;28;20149;-78
2023/01/13 11:10:07;;;;;;;12.02;1.55;;;9.00;99.90;;;;;;4999503;28;20175;-78
2023/01/13 11:12:44;;;;;;;16.33;0.57;;;9.00;99.90;;;;;;5000281;28;20069;-78
2023/01/13 11:15:16;;;;;;;8.90;0.68;;;9.00;99.90;;;;;;5017569;28;20435;-78
2023/01/13 11:17:47;;;;;;;7.85;0.75;;;9.10;99.90;;;;;;5017541;28;20050;-77
2023/01/13 11:20:19;;;;;;;13.70;0.80;;;9.10;99.90;;;;;;5017579;28;20029;-78
2023/01/13 11:22:46;;;;;;;8.18;0.85;;;9.10;99.90;;;;;;5017640;28;20453;-78
2023/01/13 11:25:40;;;;;;;10.70;1.40;;;9.30;99.90;;;;;;4999780;28;20033;-78
2023/01/13 11:28:42;;;;;;;12.85;0.95;;;9.20;99.90;;;;;;4999658;28;20088;-79
2023/01/13 11:31:26;;;;;;;7.97;0.60;;;9.30;99.90;;;;;;4992884;28;20042;-78
2023/01/13 11:33:59;;;;;;;19.38;0.82;;;9.40;99.90;;;;;;4999801;28;20029;-78
2023/01/13 11:36:33;;;;;;;14.55;1.05;;;9.40;99.90;;;;;;4999702;28;20026;-77
2023/01/13 11:39:18;;;;;;;17.98;1.27;;;9.40;99.90;;;;;;4999787;28;20024;-77
2023/01/13 11:42:19;;;;;;;8.00;0.47;;;9.50;99.90;;;;;;5017485;28;20473;-78
2023/01/13 11:45:13;;;;;;;6.45;0.68;;;9.50;99.90;;;;;;5016685;28;20037;-77
2023/01/13 11:47:39;;;;;;;7.47;0.10;;;9.40;99.90;;;;;;4989901;28;20374;-76
2023/01/13 11:50:18;;;;;;;6.60;0.73;;;9.40;99.90;;;;;;5016656;28;20029;-78
2023/01/13 11:53:21;;;;;;;4.68;0.50;;;9.50;99.90;;;;;;4999531;28;20022;-78
2023/01/13 11:56:15;;;;;;;7.35;0.70;;;9.50;99.90;;;;;;4999318;28;20561;-78
2023/01/13 11:58:44;;;;;;;10.60;1.05;;;9.40;99.90;;;;;;5016857;28;20030;-78
2023/01/13 12:01:26;;;;;;;7.75;0.30;;;9.60;99.90;;;;;;5016845;28;20030;-78
2023/01/13 12:04:12;;;;;;;4.55;0.15;;;9.60;99.90;;;;;;4998831;28;20026;-78
2023/01/13 12:06:39;;;;;;;11.23;0.85;;;9.60;99.90;;;;;;4998650;28;20069;-78
2023/01/13 12:09:23;;;;;;;8.77;0.10;;;9.60;99.90;;;;;;5016468;28;20104;-78
2023/01/13 12:15:20;;;;;;;7.00;0.57;;;9.60;99.90;;;;;;5016993;28;20044;-77
2023/01/13 12:18:24;;;;;;;8.52;1.33;;;9.60;99.90;;;;;;4999921;28;20076;-78
2023/01/13 12:21:02;;;;;;;5.38;0.55;;;9.60;99.90;;;;;;5016590;28;20105;-78
2023/01/13 12:23:34;;;;;;;5.50;0.25;;;9.50;99.90;;;;;;4998685;28;20030;-78
2023/01/13 12:26:09;;;;;;;7.22;1.27;;;9.60;99.90;;;;;;5016579;28;20022;-77
2023/01/13 12:29:17;;;;;;;12.05;0.80;;;10.80;99.90;;;;;;4998853;28;20030;-78
2023/01/13 12:31:44;;;;;;;;;;;9.60;99.90;;;;;;4996710;28;20077;-78
2023/01/13 12:34:23;;;;;;;10.02;0.43;;;9.60;99.90;;;;;;5016683;28;19916;-78
2023/01/13 12:37:01;;;;;;;8.35;1.05;;;9.60;99.90;;;;;;5015935;28;20087;-78
2023/01/13 12:40:13;;;;;;;13.05;0.52;;;9.60;99.90;;;;;;4998515;28;20014;-78
2023/01/13 12:45:33;;;;;;;11.70;0.75;;;9.60;99.90;;;;;;5015959;28;20065;-78
2023/01/13 12:48:00;;;;;;;9.05;0.10;;;9.60;99.90;;;;;;5015724;28;20025;-78
2023/01/13 12:50:25;;;;;;;3.85;0.25;;;8.80;99.90;;;;;;4998082;28;20076;-78
2023/01/13 12:52:54;;;;;;;11.68;1.55;;;9.70;99.90;;;;;;5015671;28;20030;-77
2023/01/13 12:55:22;;;;;;;7.88;1.13;;;9.60;99.90;;;;;;4998351;28;20022;-78
2023/01/13 12:58:09;;;;;;;3.70;0.52;;;10.20;99.90;;;;;;4997703;28;20026;-78
2023/01/13 13:00:40;;;;;;;15.48;0.32;;;9.70;99.90;;;;;;5015054;28;20026;-78
2023/01/13 13:03:12;;;;;;;8.15;0.63;;;10.10;99.90;;;;;;5015853;28;20022;-78
2023/01/13 13:06:02;;;;;;;2.88;0.13;;;9.70;99.90;;;;;;5015967;28;20427;-78
2023/01/13 13:08:45;;;;;;;7.93;0.40;;;9.70;99.90;;;;;;5015397;28;20034;-78
2023/01/13 13:14:18;;;;;;;5.78;0.47;;;9.80;99.90;;;;;;5015078;28;20455;-78
2023/01/13 13:16:51;;;;;;;3.28;0.43;;;9.70;99.90;;;;;;4968165;28;20030;-78
2023/01/13 13:19:17;;;;;;;6.78;0.17;;;9.70;99.90;;;;;;4997370;28;20018;-78
2023/01/13 13:22:08;;;;;;;9.43;0.50;;;9.80;99.90;;;;;;5006887;28;20053;-79
2023/01/13 13:24:34;;;;;;;10.98;0.00;;;9.70;99.90;;;;;;5022766;28;20377;-79
2023/01/13 13:27:21;;;;;;;10.38;1.85;;;9.70;99.90;;;;;;5002584;28;20025;-79
2023/01/13 13:30:18;;;;;;;8.35;1.02;;;9.70;99.90;;;;;;5008838;28;20034;-79
2023/01/13 13:32:47;;;;;;;8.10;1.00;;;13.70;99.90;;;;;;5009151;28;20040;-79
2023/01/13 13:35:27;;;;;;;3.35;0.32;;;9.70;99.90;;;;;;5027051;28;20018;-79
2023/01/13 13:47:19;;;;;;;5.57;0.10;;;9.80;99.90;;;;;;5026603;28;20068;-79
2023/01/13 13:49:53;;;;;;;7.40;0.88;;;9.80;99.90;;;;;;5027868;28;20026;-79
2023/01/13 13:52:38;;;;;;;13.63;0.77;;;9.80;99.90;;;;;;5005589;28;20022;-78
2023/01/13 13:55:25;;;;;;;6.65;1.30;;;9.70;99.90;;;;;;5027405;28;20041;-79
2023/01/13 13:57:53;;;;;;;13.88;1.20;;;9.80;99.90;;;;;;5027329;28;20018;-79
2023/01/13 14:00:32;;;;;;;11.43;0.30;;;9.80;99.90;;;;;;5027298;28;20025;-79
2023/01/13 14:03:02;;;;;;;3.72;0.30;;;9.70;99.90;;;;;;5027382;28;20037;-79
2023/01/13 14:05:32;;;;;;;11.30;0.82;;;9.80;99.90;;;;;;5027285;28;20025;-79
2023/01/13 14:08:01;;;;;;;6.45;0.35;;;9.80;99.90;;;;;;5007456;28;20026;-79
2023/01/13 14:10:34;;;;;;;;;;;9.80;99.90;;;;;;5027513;28;20038;-79
2023/01/13 14:13:02;;;;;;;5.82;0.55;;;9.70;99.90;;;;;;5010685;28;20403;-79
2023/01/13 14:15:34;;;;;;;7.15;0.73;;;9.70;99.90;;;;;;5007333;28;20029;-79
2023/01/13 14:18:02;;;;;;;10.55;0.73;;;9.70;99.90;;;;;;4999263;28;20552;-80
2023/01/13 14:20:29;;;;;;;5.60;0.32;;;9.70;99.90;;;;;;4998579;28;20477;-79
2023/01/13 14:23:00;;;;;;;8.30;0.52;;;9.70;99.90;;;;;;4998500;28;20049;-79
2023/01/13 14:25:33;;;;;;;10.80;0.75;;;9.60;99.90;;;;;;4999395;28;20026;-79
2023/01/13 14:28:06;;;;;;;14.70;0.80;;;9.60;99.90;;;;;;4999454;28;20556;-80
2023/01/13 14:30:32;;;;;;;5.68;0.50;;;9.60;99.90;;;;;;4999049;28;20022;-80
2023/01/13 14:32:59;;;;;;;8.43;0.17;;;9.60;99.90;;;;;;5015771;28;20034;-79